Time;durP1;ratioP1;P1;durP2;ratioP2;P2;SDS_P1;SDS_P2;PMS_P1;PMS_P2;Temp;Humidity;BMP_temperature;BMP_pressure;BME280_temperature;BME280_humidity;BME280_pressure;Samples;Min_cycle;Max_cycle;Signal;HPM_P1;HPM_P2
2024/02/21 00:00:52;;;;;;;21.73;10.17;;;;;8.90;101800.00;;;;9971603;29;20241;-81
2024/02/21 00:05:53;;;;;;;25.80;10.53;;;;;8.80;101786.00;;;;9958221;29;20237;-81
2024/02/21 00:10:54;;;;;;;23.83;10.27;;;;;8.80;101790.00;;;;9971222;29;20233;-82
2024/02/21 00:15:55;;;;;;;18.87;9.40;;;;;8.80;101776.00;;;;9965187;29;20241;-81
2024/02/21 00:20:57;;;;;;;20.80;8.63;;;;;8.80;101767.00;;;;9951889;29;20321;-81
2024/02/21 00:25:58;;;;;;;20.80;8.53;;;;;8.90;101756.00;;;;9969582;29;20226;-81
2024/02/21 00:30:59;;;;;;;20.57;7.83;;;;;8.90;101753.00;;;;9984982;29;20314;-81
2024/02/21 00:36:01;;;;;;;18.27;8.33;;;;;8.90;101740.00;;;;9982863;29;20253;-80
2024/02/21 00:41:02;;;;;;;20.30;8.27;;;;;8.90;101747.00;;;;9983388;29;20312;-80
2024/02/21 00:46:06;;;;;;;21.30;8.83;;;;;8.90;101735.00;;;;9985372;29;20245;-81
2024/02/21 00:51:07;;;;;;;14.77;6.67;;;;;8.90;101717.00;;;;9951204;29;20316;-81
2024/02/21 00:56:08;;;;;;;16.07;6.87;;;;;8.90;101722.00;;;;9958492;29;20312;-82
2024/02/21 01:01:09;;;;;;;14.40;6.90;;;;;9.00;101714.00;;;;9961194;29;20233;-81
2024/02/21 01:06:10;;;;;;;14.20;7.03;;;;;9.00;101712.00;;;;9947650;29;20232;-81
2024/02/21 01:11:11;;;;;;;14.80;7.03;;;;;9.00;101704.00;;;;9960446;29;20225;-82
2024/02/21 01:16:16;;;;;;;12.23;6.37;;;;;9.00;101704.00;;;;9971779;29;20630;-83
2024/02/21 01:21:17;;;;;;;13.57;6.80;;;;;9.00;101701.00;;;;9979878;29;20269;-83
2024/02/21 01:26:18;;;;;;;19.43;7.13;;;;;9.00;101699.00;;;;9948535;29;20230;-83
2024/02/21 01:31:20;;;;;;;15.17;7.00;;;;;9.00;101691.00;;;;9969081;29;20271;-83
2024/02/21 01:36:21;;;;;;;16.53;6.80;;;;;9.00;101674.00;;;;9981580;29;20269;-82
2024/02/21 01:41:22;;;;;;;15.63;7.73;;;;;8.80;101659.00;;;;9978197;29;20314;-82
2024/02/21 01:46:30;;;;;;;17.60;7.63;;;;;8.60;101653.00;;;;9936564;29;20224;-81
2024/02/21 01:51:32;;;;;;;14.63;7.90;;;;;8.30;101636.00;;;;9965009;29;20286;-83
2024/02/21 01:56:34;;;;;;;17.30;8.67;;;;;8.20;101636.00;;;;9959643;29;20825;-82
2024/02/21 02:01:35;;;;;;;19.23;9.60;;;;;8.10;101642.00;;;;9964469;29;20232;-82
2024/02/21 02:06:36;;;;;;;18.13;9.00;;;;;8.20;101639.00;;;;9985728;29;20233;-82
2024/02/21 02:11:37;;;;;;;19.37;9.50;;;;;8.30;101644.00;;;;9961380;29;20237;-80
2024/02/21 02:16:39;;;;;;;19.90;10.67;;;;;8.30;101629.00;;;;9962706;29;20251;-79
2024/02/21 02:21:53;;;;;;;23.60;10.03;;;;;8.40;101631.00;;;;9947765;29;20703;-78
2024/02/21 02:26:54;;;;;;;21.73;9.90;;;;;8.40;101641.00;;;;9975634;29;20827;-79
2024/02/21 02:31:55;;;;;;;23.17;9.93;;;;;8.50;101638.00;;;;9944970;29;20640;-78
2024/02/21 02:36:56;;;;;;;22.07;10.40;;;;;8.50;101616.00;;;;9966098;29;20244;-79
2024/02/21 02:41:57;;;;;;;23.73;9.87;;;;;8.50;101617.00;;;;10015945;29;20239;-79
2024/02/21 02:46:58;;;;;;;21.30;10.13;;;;;8.50;101609.00;;;;9999171;29;20221;-79
2024/02/21 02:52:00;;;;;;;25.37;9.40;;;;;8.50;101619.00;;;;9966711;29;20252;-78
2024/02/21 02:57:03;;;;;;;23.10;9.33;;;;;8.50;101607.00;;;;9979567;29;20237;-79
2024/02/21 03:02:04;;;;;;;18.10;7.83;;;;;8.50;101581.00;;;;9991562;29;20304;-79
2024/02/21 03:07:06;;;;;;;19.97;8.93;;;;;8.50;101577.00;;;;9957539;29;20904;-78
2024/02/21 03:12:07;;;;;;;14.70;7.77;;;;;8.50;101557.00;;;;9978315;29;20232;-79
2024/02/21 03:17:08;;;;;;;19.40;8.20;;;;;8.50;101540.00;;;;9977348;29;20256;-79
2024/02/21 03:22:09;;;;;;;15.93;7.90;;;;;8.50;101544.00;;;;9991367;29;20309;-79
2024/02/21 03:27:11;;;;;;;14.57;7.20;;;;;8.60;101538.00;;;;9990753;29;20673;-76
2024/02/21 03:32:12;;;;;;;13.87;8.50;;;;;8.60;101531.00;;;;9983061;29;20237;-76
2024/02/21 03:37:13;;;;;;;19.17;9.30;;;;;8.60;101524.00;;;;9977629;29;20221;-76
2024/02/21 03:42:14;;;;;;;14.10;8.33;;;;;8.60;101520.00;;;;9963477;29;20245;-76
2024/02/21 03:47:16;;;;;;;17.30;7.73;;;;;8.60;101506.00;;;;9993743;29;20234;-76
2024/02/21 03:52:17;;;;;;;16.53;7.57;;;;;8.60;101523.00;;;;9979214;29;20921;-75
2024/02/21 03:57:18;;;;;;;17.73;8.90;;;;;8.60;101508.00;;;;9970269;29;20454;-76
2024/02/21 04:02:19;;;;;;;15.87;7.53;;;;;8.60;101512.00;;;;9963081;29;20226;-76
2024/02/21 04:07:20;;;;;;;21.13;9.63;;;;;8.50;101506.00;;;;9974443;29;20236;-75
2024/02/21 04:12:21;;;;;;;15.23;9.13;;;;;8.50;101519.00;;;;9980676;29;20228;-76
2024/02/21 04:17:22;;;;;;;19.30;9.47;;;;;8.40;101507.00;;;;9952505;29;20272;-76
2024/02/21 04:22:26;;;;;;;21.10;9.03;;;;;8.40;101510.00;;;;9971231;29;20306;-75
2024/02/21 04:27:27;;;;;;;21.43;9.43;;;;;8.40;101501.00;;;;9965381;29;20974;-76
2024/02/21 04:32:29;;;;;;;21.77;9.10;;;;;8.40;101494.00;;;;9972350;29;20324;-76
2024/02/21 04:37:30;;;;;;;19.63;9.60;;;;;8.40;101488.00;;;;9961025;29;20647;-82
2024/02/21 04:42:32;;;;;;;13.60;8.33;;;;;8.40;101485.00;;;;9958948;29;20221;-83
2024/02/21 04:47:33;;;;;;;16.23;8.60;;;;;8.40;101475.00;;;;9973485;29;20633;-83
2024/02/21 04:52:34;;;;;;;16.53;9.40;;;;;8.40;101473.00;;;;9972816;29;20254;-80
2024/02/21 04:57:35;;;;;;;13.53;9.00;;;;;8.40;101467.00;;;;9993436;29;20264;-84
2024/02/21 05:02:36;;;;;;;19.33;9.20;;;;;8.40;101455.00;;;;9946457;29;20230;-83
2024/02/21 05:07:37;;;;;;;19.77;9.13;;;;;8.40;101446.00;;;;9975605;29;20316;-87
2024/02/21 05:12:38;;;;;;;16.20;8.67;;;;;8.40;101425.00;;;;9971717;29;20232;-83
2024/02/21 05:17:40;;;;;;;19.17;8.80;;;;;8.40;101406.00;;;;9978836;29;20261;-82
2024/02/21 05:22:42;;;;;;;14.00;8.07;;;;;8.40;101411.00;;;;9999203;29;20226;-84
2024/02/21 05:27:43;;;;;;;16.07;7.60;;;;;8.50;101395.00;;;;9944128;29;20229;-81
2024/02/21 05:32:44;;;;;;;13.60;7.17;;;;;8.50;101389.00;;;;9990390;29;20240;-84
2024/02/21 05:37:46;;;;;;;13.23;7.63;;;;;8.50;101391.00;;;;10000648;29;20229;-84
2024/02/21 05:42:47;;;;;;;11.93;7.20;;;;;8.50;101393.00;;;;9970314;29;20225;-83
2024/02/21 05:47:49;;;;;;;13.03;7.40;;;;;8.50;101377.00;;;;9981452;29;20258;-78
2024/02/21 05:52:51;;;;;;;17.90;8.67;;;;;8.50;101379.00;;;;9980583;29;20240;-79
2024/02/21 05:57:55;;;;;;;14.53;7.87;;;;;8.50;101382.00;;;;9982135;29;20229;-78
2024/02/21 06:02:57;;;;;;;10.97;6.70;;;;;8.50;101360.00;;;;9997653;29;20240;-78
2024/02/21 06:07:58;;;;;;;13.80;6.93;;;;;8.50;101347.00;;;;9968341;29;20230;-78
2024/02/21 06:12:59;;;;;;;14.33;6.80;;;;;8.50;101331.00;;;;9965654;29;20265;-79
2024/02/21 06:18:01;;;;;;;10.80;6.10;;;;;8.50;101333.00;;;;9964563;29;20329;-78
2024/02/21 06:23:03;;;;;;;10.30;6.97;;;;;8.50;101332.00;;;;9972656;29;20248;-79
2024/02/21 06:28:05;;;;;;;9.33;5.50;;;;;8.60;101332.00;;;;9979705;29;20225;-79
2024/02/21 06:33:07;;;;;;;8.23;4.77;;;;;8.60;101333.00;;;;9989704;29;20282;-78
2024/02/21 06:38:09;;;;;;;9.17;5.50;;;;;8.60;101332.00;;;;9965677;29;20233;-78
2024/02/21 06:43:10;;;;;;;10.60;5.87;;;;;8.60;101334.00;;;;9985634;29;20233;-78
2024/02/21 06:48:11;;;;;;;12.20;5.53;;;;;8.70;101340.00;;;;9955523;29;20398;-79
2024/02/21 06:53:12;;;;;;;10.77;5.80;;;;;8.70;101334.00;;;;9953303;29;20699;-78
2024/02/21 06:58:15;;;;;;;8.30;4.67;;;;;8.70;101333.00;;;;9968783;29;20309;-78
2024/02/21 07:03:16;;;;;;;10.00;6.00;;;;;8.70;101330.00;;;;9975246;29;20948;-77
2024/02/21 07:08:17;;;;;;;11.30;6.00;;;;;8.70;101324.00;;;;9971741;29;20308;-78
2024/02/21 07:13:19;;;;;;;8.87;6.10;;;;;8.70;101328.00;;;;9973871;29;20226;-77
2024/02/21 07:18:20;;;;;;;10.93;7.80;;;;;8.70;101325.00;;;;9961833;29;20253;-78
2024/02/21 07:23:21;;;;;;;10.03;6.83;;;;;8.70;101313.00;;;;9991334;29;20230;-77
2024/02/21 07:28:23;;;;;;;13.03;7.93;;;;;8.70;101311.00;;;;9963158;29;20256;-77
2024/02/21 07:33:24;;;;;;;14.87;9.40;;;;;8.70;101306.00;;;;9965797;29;20309;-78
2024/02/21 07:38:25;;;;;;;12.00;7.03;;;;;8.60;101295.00;;;;9991411;29;20233;-77
2024/02/21 07:43:26;;;;;;;8.20;6.10;;;;;8.60;101275.00;;;;9963524;29;20229;-78
2024/02/21 07:48:27;;;;;;;10.27;6.67;;;;;8.60;101270.00;;;;9968084;29;20229;-78
2024/02/21 07:53:28;;;;;;;12.23;7.23;;;;;8.60;101262.00;;;;9947197;29;20281;-77
2024/02/21 07:58:30;;;;;;;11.63;6.77;;;;;8.60;101248.00;;;;9973309;29;20287;-77
2024/02/21 08:03:31;;;;;;;13.53;6.93;;;;;8.70;101238.00;;;;9956765;29;20735;-78
2024/02/21 08:08:32;;;;;;;12.37;6.13;;;;;8.80;101223.00;;;;9971587;29;20228;-77
2024/02/21 08:13:33;;;;;;;8.30;5.77;;;;;8.80;101225.00;;;;9968035;29;20267;-79
2024/02/21 08:18:38;;;;;;;11.77;6.47;;;;;8.90;101205.00;;;;9987923;29;20799;-78
2024/02/21 08:23:39;;;;;;;8.53;5.93;;;;;9.00;101215.00;;;;9971480;29;20317;-79
2024/02/21 08:28:41;;;;;;;10.87;6.60;;;;;9.00;101212.00;;;;9977506;29;20231;-78
2024/02/21 08:33:42;;;;;;;10.37;6.30;;;;;9.10;101214.00;;;;9980031;29;20460;-78
2024/02/21 08:38:43;;;;;;;12.80;6.53;;;;;9.20;101196.00;;;;9957749;29;20325;-78
2024/02/21 08:43:44;;;;;;;13.27;6.13;;;;;9.30;101185.00;;;;9959327;29;20274;-78
2024/02/21 08:48:48;;;;;;;13.13;6.37;;;;;9.30;101174.00;;;;9982319;29;20305;-79
2024/02/21 08:53:49;;;;;;;7.73;5.63;;;;;9.40;101168.00;;;;9945593;29;20334;-79
2024/02/21 08:58:50;;;;;;;10.10;5.80;;;;;9.50;101161.00;;;;9955010;29;20658;-79
2024/02/21 09:03:53;;;;;;;9.17;4.87;;;;;9.50;101152.00;;;;9967143;29;20235;-80
2024/02/21 09:08:56;;;;;;;9.30;5.83;;;;;9.60;101136.00;;;;9965747;29;20255;-79
2024/02/21 09:13:57;;;;;;;14.37;5.63;;;;;9.80;101120.00;;;;9982874;29;20218;-79
2024/02/21 09:19:00;;;;;;;8.93;4.30;;;;;10.00;101109.00;;;;9933807;29;20241;-86
2024/02/21 09:24:02;;;;;;;10.67;4.50;;;;;9.90;101118.00;;;;9955317;29;20230;-85
2024/02/21 09:29:03;;;;;;;9.60;4.67;;;;;10.00;101110.00;;;;9965815;29;20229;-84
2024/02/21 09:34:05;;;;;;;11.27;5.00;;;;;10.10;101074.00;;;;9990485;29;20245;-84
2024/02/21 09:39:06;;;;;;;7.77;4.07;;;;;10.50;101053.00;;;;9957977;29;20249;-84
2024/02/21 09:44:10;;;;;;;6.73;3.97;;;;;10.70;101031.00;;;;9974649;29;20258;-84
2024/02/21 09:49:29;;;;;;;8.33;4.17;;;;;10.80;101014.00;;;;9955210;29;20232;-84
2024/02/21 09:54:33;;;;;;;6.77;3.90;;;;;11.00;101010.00;;;;9982519;29;20222;-85
2024/02/21 09:59:34;;;;;;;6.03;3.33;;;;;11.10;100991.00;;;;9950252;29;20355;-83
2024/02/21 10:04:36;;;;;;;8.40;3.87;;;;;11.10;100987.00;;;;9960382;29;20309;-82
2024/02/21 10:09:37;;;;;;;7.50;4.10;;;;;11.20;100978.00;;;;9983845;29;20706;-85
2024/02/21 10:14:38;;;;;;;6.13;3.70;;;;;11.30;100968.00;;;;9982696;29;20221;-85
2024/02/21 10:19:40;;;;;;;11.57;3.83;;;;;11.30;100964.00;;;;9971038;29;20226;-83
2024/02/21 10:24:43;;;;;;;11.50;4.60;;;;;11.60;100944.00;;;;9969351;29;20312;-84
2024/02/21 10:29:50;;;;;;;8.00;4.00;;;;;11.70;100938.00;;;;10000885;29;20252;-84
2024/02/21 10:35:01;;;;;;;7.13;3.57;;;;;11.90;100908.00;;;;9999424;29;20292;-85
2024/02/21 10:40:05;;;;;;;8.40;3.93;;;;;12.10;100918.00;;;;9968452;29;20777;-86
2024/02/21 10:45:07;;;;;;;9.80;3.27;;;;;12.10;100911.00;;;;9959531;29;20952;-84
2024/02/21 10:50:12;;;;;;;6.27;3.57;;;;;12.10;100916.00;;;;9985683;29;20217;-83
2024/02/21 10:55:23;;;;;;;8.27;4.10;;;;;12.10;100910.00;;;;9989550;29;20880;-83
2024/02/21 11:00:30;;;;;;;10.90;4.43;;;;;12.20;100865.00;;;;9958831;29;20256;-83
2024/02/21 11:05:32;;;;;;;8.57;3.70;;;;;12.30;100853.00;;;;9978060;29;20229;-83
2024/02/21 11:10:36;;;;;;;5.73;3.40;;;;;12.60;100843.00;;;;9959639;29;20249;-85
2024/02/21 11:15:37;;;;;;;4.20;2.70;;;;;12.60;100850.00;;;;9959829;29;20259;-88
2024/02/21 11:20:39;;;;;;;9.35;2.75;;;;;12.60;100830.00;;;;9975442;29;20316;-83
2024/02/21 11:25:40;;;;;;;8.27;3.08;;;;;12.40;100813.00;;;;9980906;29;20256;-84
2024/02/21 11:30:43;;;;;;;6.53;2.72;;;;;12.40;100788.00;;;;9966286;29;20225;-83
2024/02/21 11:35:46;;;;;;;5.05;2.47;;;;;12.30;100788.00;;;;9969550;29;20233;-80
2024/02/21 11:40:47;;;;;;;6.07;2.47;;;;;12.30;100781.00;;;;9950080;29;20241;-81
2024/02/21 11:45:49;;;;;;;5.23;2.43;;;;;12.30;100770.00;;;;9971729;29;20229;-79
2024/02/21 11:50:56;;;;;;;5.37;2.27;;;;;12.30;100757.00;;;;9957817;29;20226;-80
2024/02/21 11:55:58;;;;;;;5.47;3.10;;;;;12.20;100751.00;;;;9990409;29;20280;-80
2024/02/21 12:00:59;;;;;;;7.55;2.42;;;;;12.10;100732.00;;;;9971060;29;20238;-79
2024/02/21 12:06:03;;;;;;;5.10;2.73;;;;;12.00;100727.00;;;;9965215;29;20240;-79
2024/02/21 12:11:04;;;;;;;3.47;2.53;;;;;11.90;100724.00;;;;9958673;29;20217;-80
2024/02/21 12:16:06;;;;;;;5.43;2.72;;;;;11.80;100718.00;;;;9979381;29;20226;-80
2024/02/21 12:21:08;;;;;;;4.65;2.90;;;;;11.80;100722.00;;;;9933543;29;20221;-80
2024/02/21 12:26:09;;;;;;;8.97;3.97;;;;;11.80;100708.00;;;;9959739;29;20642;-80
2024/02/21 12:31:11;;;;;;;7.18;3.13;;;;;11.70;100702.00;;;;9957578;29;20233;-80
2024/02/21 12:36:12;;;;;;;4.33;3.20;;;;;11.70;100699.00;;;;9978844;29;20249;-81
2024/02/21 12:41:13;;;;;;;9.23;3.13;;;;;11.70;100678.00;;;;9961843;29;20845;-80
2024/02/21 12:46:15;;;;;;;8.77;3.57;;;;;11.60;100674.00;;;;9971528;29;20217;-76
2024/02/21 12:51:20;;;;;;;5.93;3.20;;;;;11.60;100656.00;;;;9956625;29;20234;-76
2024/02/21 12:56:21;;;;;;;8.03;3.40;;;;;11.60;100637.00;;;;9978430;29;21013;-77
2024/02/21 13:01:23;;;;;;;5.33;3.80;;;;;11.70;100623.00;;;;9973598;29;20233;-77
2024/02/21 13:06:24;;;;;;;12.20;3.37;;;;;11.70;100599.00;;;;9975297;29;20229;-76
2024/02/21 13:11:28;;;;;;;7.50;3.80;;;;;11.80;100583.00;;;;9965213;29;20233;-76
2024/02/21 13:16:29;;;;;;;7.93;3.27;;;;;11.80;100573.00;;;;9969571;29;20221;-78
2024/02/21 13:21:31;;;;;;;13.83;3.40;;;;;11.70;100557.00;;;;10002857;29;20224;-75
2024/02/21 13:26:32;;;;;;;10.07;3.80;;;;;11.60;100554.00;;;;9947830;29;20908;-78
2024/02/21 13:31:34;;;;;;;6.40;3.53;;;;;11.50;100545.00;;;;9951661;29;20247;-77
2024/02/21 13:36:35;;;;;;;8.77;3.83;;;;;11.50;100532.00;;;;9955140;29;20752;-76
2024/02/21 13:41:36;;;;;;;8.57;4.00;;;;;11.40;100525.00;;;;9961237;29;20991;-76
2024/02/21 13:46:37;;;;;;;9.00;3.63;;;;;11.30;100508.00;;;;9970267;29;20296;-77
2024/02/21 13:51:40;;;;;;;7.20;3.87;;;;;11.00;100492.00;;;;9978956;29;20244;-76
2024/02/21 13:56:41;;;;;;;5.83;2.77;;;;;10.80;100488.00;;;;9988235;29;20270;-77
2024/02/21 14:01:42;;;;;;;8.60;3.80;;;;;10.60;100488.00;;;;9969170;29;20829;-78
2024/02/21 14:06:44;;;;;;;11.73;3.63;;;;;10.50;100480.00;;;;9982809;29;20301;-78
2024/02/21 14:11:46;;;;;;;4.90;3.27;;;;;10.40;100463.00;;;;9975031;29;20225;-77
2024/02/21 14:16:48;;;;;;;7.93;3.33;;;;;10.40;100446.00;;;;9963179;29;20229;-77
2024/02/21 14:21:49;;;;;;;12.07;4.20;;;;;10.40;100430.00;;;;9981852;29;20231;-78
2024/02/21 14:26:50;;;;;;;8.20;3.20;;;;;10.30;100401.00;;;;9989220;29;20236;-78
2024/02/21 14:31:51;;;;;;;8.73;3.20;;;;;10.20;100384.00;;;;9969178;29;20253;-78
2024/02/21 14:36:52;;;;;;;7.30;3.37;;;;;10.00;100375.00;;;;9978603;29;20229;-79
2024/02/21 14:41:54;;;;;;;11.37;3.73;;;;;9.90;100339.00;;;;9947876;29;20261;-78
2024/02/21 14:46:55;;;;;;;8.73;4.07;;;;;9.70;100311.00;;;;9957478;29;20386;-82
2024/02/21 14:51:56;;;;;;;9.60;3.83;;;;;9.60;100293.00;;;;9992131;29;20592;-79
2024/02/21 14:56:58;;;;;;;5.83;3.43;;;;;9.50;100281.00;;;;9961012;29;20241;-78
2024/02/21 15:01:59;;;;;;;4.90;2.87;;;;;9.40;100248.00;;;;9965586;29;20249;-80
2024/02/21 15:07:02;;;;;;;6.63;3.40;;;;;9.30;100235.00;;;;9965311;29;20229;-80
2024/02/21 15:12:03;;;;;;;9.93;4.20;;;;;9.20;100218.00;;;;9961726;29;20587;-79
2024/02/21 15:17:04;;;;;;;5.73;3.33;;;;;9.20;100216.00;;;;9955109;29;20358;-78
2024/02/21 15:22:06;;;;;;;8.70;4.37;;;;;9.20;100193.00;;;;9983993;29;20221;-79
2024/02/21 15:27:08;;;;;;;4.03;3.53;;;;;9.10;100177.00;;;;9961587;29;20236;-77
2024/02/21 15:32:09;;;;;;;7.83;3.80;;;;;9.10;100147.00;;;;9964533;29;20222;-81
2024/02/21 15:37:11;;;;;;;11.60;4.27;;;;;9.00;100144.00;;;;9952348;29;20233;-80
2024/02/21 15:42:12;;;;;;;9.63;4.17;;;;;8.90;100108.00;;;;9965855;29;20270;-80
2024/02/21 15:47:15;;;;;;;5.63;3.23;;;;;8.90;100092.00;;;;9963562;29;20261;-80
2024/02/21 15:52:16;;;;;;;5.47;3.50;;;;;8.80;100099.00;;;;10000411;29;20241;-80
2024/02/21 15:57:17;;;;;;;9.27;4.43;;;;;8.80;100091.00;;;;9963870;29;20263;-77
2024/02/21 16:02:18;;;;;;;8.17;4.00;;;;;8.70;100083.00;;;;9958485;29;21123;-78
2024/02/21 16:07:20;;;;;;;7.83;4.40;;;;;8.70;100064.00;;;;9963159;29;22452;-78
2024/02/21 16:12:23;;;;;;;5.00;2.60;;;;;8.70;100073.00;;;;9970510;29;20272;-79
2024/02/21 16:17:24;;;;;;;8.93;3.37;;;;;8.70;100056.00;;;;9966928;29;20222;-79
2024/02/21 16:22:25;;;;;;;8.73;3.93;;;;;8.70;100051.00;;;;9959990;29;20229;-76
2024/02/21 16:27:27;;;;;;;5.63;4.00;;;;;8.70;100053.00;;;;9964574;29;20249;-78
2024/02/21 16:32:28;;;;;;;8.40;4.63;;;;;8.60;100042.00;;;;9976710;29;20313;-76
2024/02/21 16:37:30;;;;;;;6.43;3.60;;;;;8.60;100028.00;;;;9960267;29;20541;-78
2024/02/21 16:42:31;;;;;;;8.43;4.43;;;;;8.60;100024.00;;;;9958557;29;20320;-75
2024/02/21 16:47:33;;;;;;;4.80;3.50;;;;;8.60;100022.00;;;;9974216;29;20229;-76
2024/02/21 16:52:34;;;;;;;5.40;3.73;;;;;8.60;100003.00;;;;9953389;29;20225;-77
2024/02/21 16:57:35;;;;;;;9.60;3.70;;;;;8.60;100013.00;;;;9974672;29;20311;-76
2024/02/21 17:02:40;;;;;;;8.57;4.67;;;;;8.60;100004.00;;;;9982364;29;20251;-77
2024/02/21 17:07:55;;;;;;;7.33;4.17;;;;;8.60;99984.00;;;;9968267;29;20229;-78
2024/02/21 17:12:57;;;;;;;7.33;4.30;;;;;8.50;99993.00;;;;9972638;29;20605;-77
2024/02/21 17:17:58;;;;;;;5.73;2.20;;;;;8.60;99980.00;;;;9996005;29;20229;-76
2024/02/21 17:22:59;;;;;;;5.23;3.60;;;;;8.60;99978.00;;;;9972488;29;20229;-77
2024/02/21 17:28:02;;;;;;;6.23;3.43;;;;;8.60;99954.00;;;;9983388;29;20234;-77
2024/02/21 17:33:09;;;;;;;3.83;2.70;;;;;8.60;99959.00;;;;9946725;29;20321;-78
2024/02/21 17:38:10;;;;;;;6.50;3.30;;;;;8.60;99944.00;;;;9947339;29;20321;-77
2024/02/21 17:43:12;;;;;;;5.60;3.33;;;;;8.60;99942.00;;;;9953841;29;20229;-78
2024/02/21 17:48:13;;;;;;;7.20;3.77;;;;;8.60;99933.00;;;;9970858;29;21004;-79
2024/02/21 17:53:16;;;;;;;4.60;3.47;;;;;8.60;99920.00;;;;9959553;29;20237;-78
2024/02/21 17:58:18;;;;;;;2.83;2.47;;;;;8.60;99895.00;;;;9965579;29;20226;-77
2024/02/21 18:03:20;;;;;;;2.57;2.37;;;;;8.60;99902.00;;;;9971299;29;20237;-78
2024/02/21 18:08:21;;;;;;;3.93;2.33;;;;;8.70;99884.00;;;;9958668;29;20790;-78
2024/02/21 18:13:22;;;;;;;5.80;2.53;;;;;8.70;99879.00;;;;9981378;29;20217;-80
2024/02/21 18:18:23;;;;;;;3.33;2.37;;;;;8.70;99873.00;;;;9970001;29;20324;-79
2024/02/21 18:23:28;;;;;;;2.97;2.03;;;;;8.70;99870.00;;;;9993382;29;20320;-79
2024/02/21 18:28:29;;;;;;;2.13;1.77;;;;;8.70;99852.00;;;;9953886;29;20260;-78
2024/02/21 18:33:30;;;;;;;3.97;2.40;;;;;8.70;99846.00;;;;9961333;29;20277;-79
2024/02/21 18:38:31;;;;;;;3.83;2.50;;;;;8.70;99825.00;;;;9956509;29;20321;-78
2024/02/21 18:43:32;;;;;;;1.97;1.83;;;;;8.80;99827.00;;;;9994220;29;20952;-77
2024/02/21 18:48:33;;;;;;;3.13;2.20;;;;;8.80;99831.00;;;;9994689;29;20229;-78
2024/02/21 18:53:35;;;;;;;2.40;1.70;;;;;8.80;99818.00;;;;9978329;29;21034;-78
2024/02/21 18:58:36;;;;;;;3.33;1.80;;;;;8.80;99802.00;;;;9972799;29;20483;-76
2024/02/21 19:03:37;;;;;;;2.07;1.87;;;;;8.80;99796.00;;;;9968321;29;20232;-77
2024/02/21 19:08:38;;;;;;;2.10;1.90;;;;;8.90;99803.00;;;;9962276;29;20229;-78
2024/02/21 19:13:40;;;;;;;5.40;1.70;;;;;8.90;99793.00;;;;9957413;29;20312;-77
2024/02/21 19:18:42;;;;;;;4.83;1.93;;;;;8.90;99784.00;;;;9978434;29;20226;-80
2024/02/21 19:23:43;;;;;;;3.20;2.27;;;;;8.90;99782.00;;;;9961961;29;20233;-79
2024/02/21 19:28:45;;;;;;;3.30;2.10;;;;;8.90;99770.00;;;;9975291;29;20229;-77
2024/02/21 19:33:46;;;;;;;2.53;1.67;;;;;8.90;99755.00;;;;9989861;29;21206;-76
2024/02/21 19:38:51;;;;;;;2.73;1.93;;;;;8.90;99746.00;;;;9993436;29;20255;-75
2024/02/21 19:43:54;;;;;;;1.90;1.50;;;;;8.90;99736.00;;;;9990872;29;20234;-77
2024/02/21 19:48:55;;;;;;;2.30;1.73;;;;;8.90;99723.00;;;;9980928;29;20239;-79
2024/02/21 19:53:56;;;;;;;2.10;1.70;;;;;9.00;99719.00;;;;9959428;29;20294;-78
2024/02/21 19:59:18;;;;;;;2.53;1.80;;;;;9.00;99715.00;;;;9969163;29;20221;-78
2024/02/21 20:04:19;;;;;;;2.23;1.70;;;;;9.00;99699.00;;;;9987109;29;20985;-78
2024/02/21 20:09:20;;;;;;;1.53;1.43;;;;;9.00;99694.00;;;;9991650;29;20229;-78
2024/02/21 20:14:21;;;;;;;2.80;2.30;;;;;9.00;99694.00;;;;9985541;29;20237;-78
2024/02/21 20:19:23;;;;;;;2.20;2.00;;;;;9.00;99683.00;;;;9962374;29;20234;-79
2024/02/21 20:24:24;;;;;;;1.60;1.50;;;;;9.00;99679.00;;;;10013714;29;20244;-79
2024/02/21 20:29:40;;;;;;;2.00;1.70;;;;;9.00;99666.00;;;;9990865;29;20680;-79
2024/02/21 20:34:43;;;;;;;2.10;1.60;;;;;9.10;99660.00;;;;9969756;29;20313;-79
2024/02/21 20:39:44;;;;;;;1.30;1.20;;;;;9.10;99645.00;;;;9964974;29;20232;-79
2024/02/21 20:44:45;;;;;;;1.70;1.60;;;;;9.10;99653.00;;;;10002434;29;20278;-78
2024/02/21 20:49:46;;;;;;;1.10;1.00;;;;;9.10;99644.00;;;;9957624;29;20237;-79
2024/02/21 20:54:48;;;;;;;1.23;1.13;;;;;9.10;99645.00;;;;9981138;29;20255;-79
2024/02/21 20:59:49;;;;;;;3.20;1.90;;;;;9.10;99647.00;;;;9976429;29;20974;-78
2024/02/21 21:04:50;;;;;;;1.13;1.03;;;;;9.20;99644.00;;;;9988439;29;20236;-80
2024/02/21 21:09:51;;;;;;;2.77;1.80;;;;;9.20;99648.00;;;;9983787;29;20234;-79
2024/02/21 21:14:52;;;;;;;2.20;1.97;;;;;9.20;99642.00;;;;9976923;29;20797;-79
2024/02/21 21:19:54;;;;;;;3.27;2.17;;;;;9.30;99634.00;;;;9955855;29;20324;-80
2024/02/21 21:24:55;;;;;;;3.20;2.40;;;;;9.30;99628.00;;;;9955923;29;20656;-79
2024/02/21 21:29:56;;;;;;;3.47;2.70;;;;;9.30;99616.00;;;;9994153;29;20886;-80
2024/02/21 21:34:58;;;;;;;2.30;1.93;;;;;9.40;99612.00;;;;9957265;29;20814;-79
2024/02/21 21:39:59;;;;;;;4.10;2.03;;;;;9.40;99603.00;;;;9967596;29;20333;-79
2024/02/21 21:45:02;;;;;;;3.10;2.80;;;;;9.40;99593.00;;;;9992420;29;20238;-79
2024/02/21 21:50:03;;;;;;;2.33;1.87;;;;;9.40;99570.00;;;;9945825;29;20226;-79
2024/02/21 21:55:05;;;;;;;2.73;2.50;;;;;9.50;99581.00;;;;9977306;29;20268;-79
2024/02/21 22:00:09;;;;;;;2.20;2.07;;;;;9.50;99565.00;;;;9958676;29;20311;-80
2024/02/21 22:05:14;;;;;;;3.23;2.60;;;;;9.50;99551.00;;;;9975192;29;20229;-77
2024/02/21 22:10:16;;;;;;;3.00;2.43;;;;;9.50;99548.00;;;;9999099;29;20348;-77
2024/02/21 22:15:17;;;;;;;3.00;2.60;;;;;9.50;99544.00;;;;9956696;29;20229;-77
2024/02/21 22:20:25;;;;;;;3.13;2.80;;;;;9.60;99542.00;;;;9959265;29;20233;-78
2024/02/21 22:25:26;;;;;;;3.27;2.93;;;;;9.70;99548.00;;;;9977323;29;20269;-78
2024/02/21 22:30:27;;;;;;;2.93;2.63;;;;;9.70;99539.00;;;;9990975;29;20252;-77
2024/02/21 22:35:28;;;;;;;6.10;3.67;;;;;9.80;99527.00;;;;9978230;29;20226;-77
2024/02/21 22:40:30;;;;;;;3.20;2.67;;;;;9.80;99522.00;;;;9973580;29;20306;-79
2024/02/21 22:45:31;;;;;;;3.60;3.30;;;;;9.80;99495.00;;;;9976895;29;20235;-77
2024/02/21 22:50:32;;;;;;;4.10;2.63;;;;;9.90;99506.00;;;;9980066;29;20252;-78
2024/02/21 22:55:33;;;;;;;5.33;3.80;;;;;9.90;99503.00;;;;9958387;29;20237;-78
2024/02/21 23:00:34;;;;;;;7.60;3.90;;;;;9.90;99508.00;;;;9967098;29;20253;-79
2024/02/21 23:05:36;;;;;;;6.97;4.70;;;;;9.90;99488.00;;;;9980429;29;20235;-78
2024/02/21 23:10:37;;;;;;;5.20;4.43;;;;;9.90;99492.00;;;;9988134;29;20252;-77
2024/02/21 23:15:38;;;;;;;6.87;5.20;;;;;9.90;99488.00;;;;9972674;29;20229;-78
2024/02/21 23:20:39;;;;;;;7.97;4.33;;;;;10.00;99493.00;;;;9964573;29;20389;-77
2024/02/21 23:25:40;;;;;;;5.33;4.83;;;;;10.00;99500.00;;;;9980137;29;20298;-78
2024/02/21 23:30:41;;;;;;;7.00;4.40;;;;;10.00;99496.00;;;;9973053;29;20217;-77
2024/02/21 23:35:43;;;;;;;5.50;4.60;;;;;10.00;99501.00;;;;9961116;29;20229;-78
2024/02/21 23:40:44;;;;;;;7.20;4.73;;;;;10.00;99494.00;;;;9992516;29;20341;-77
2024/02/21 23:45:45;;;;;;;4.63;4.03;;;;;10.00;99495.00;;;;9970472;29;20229;-77
2024/02/21 23:50:46;;;;;;;4.30;3.90;;;;;10.00;99491.00;;;;9992692;29;20236;-76
2024/02/21 23:55:52;;;;;;;3.90;3.50;;;;;10.00;99478.00;;;;9977500;29;20217;-75
